createdAt,value
2023-01-28T00:00:32.031Z,12.38
2023-01-28T00:02:58.380Z,12.10
2023-01-28T00:05:25.123Z,16.20
2023-01-28T00:07:52.266Z,12.45
2023-01-28T00:10:18.923Z,18.25
2023-01-28T00:12:45.247Z,19.15
2023-01-28T00:15:12.049Z,26.00
2023-01-28T00:17:38.560Z,17.42
2023-01-28T00:20:05.590Z,19.92
2023-01-28T00:22:32.616Z,21.38
2023-01-28T00:24:59.199Z,16.23
2023-01-28T00:27:25.503Z,18.17
2023-01-28T00:29:51.817Z,12.90
2023-01-28T00:32:18.111Z,11.40
2023-01-28T00:34:44.399Z,16.85
2023-01-28T00:37:10.797Z,17.00
2023-01-28T00:39:37.140Z,13.85
2023-01-28T00:42:03.747Z,14.07
2023-01-28T00:44:30.064Z,15.23
2023-01-28T00:46:56.495Z,13.65
2023-01-28T00:49:22.802Z,11.52
2023-01-28T00:51:49.268Z,9.88
2023-01-28T00:54:16.006Z,11.95
2023-01-28T00:56:42.355Z,9.50
2023-01-28T00:59:09.514Z,9.40
2023-01-28T01:01:35.974Z,8.38
2023-01-28T01:04:02.756Z,9.57
2023-01-28T01:06:33.108Z,8.43
2023-01-28T01:08:59.609Z,12.27
2023-01-28T01:11:26.120Z,9.77
2023-01-28T01:13:55.387Z,12.13
2023-01-28T01:16:28.327Z,10.40
2023-01-28T01:18:56.068Z,9.70
2023-01-28T01:21:25.291Z,9.65
2023-01-28T01:23:52.418Z,7.70
2023-01-28T01:26:18.799Z,12.15
2023-01-28T01:28:45.761Z,14.50
2023-01-28T01:31:15.859Z,13.95
2023-01-28T01:33:42.975Z,8.55
2023-01-28T01:36:11.272Z,7.60
2023-01-28T01:38:37.875Z,10.75
2023-01-28T01:41:05.722Z,8.88
2023-01-28T01:43:54.477Z,12.55
2023-01-28T01:46:43.711Z,12.27
2023-01-28T01:49:21.798Z,10.10
2023-01-28T01:52:10.387Z,10.32
2023-01-28T01:54:39.292Z,11.15
2023-01-28T01:57:09.904Z,8.13
2023-01-28T01:59:37.757Z,14.80
2023-01-28T02:02:07.388Z,10.13
2023-01-28T02:04:38.793Z,8.82
2023-01-28T02:07:08.863Z,8.60
2023-01-28T02:09:36.550Z,9.15
2023-01-28T02:12:15.807Z,6.88
2023-01-28T02:14:47.658Z,11.60
2023-01-28T02:17:15.254Z,7.15
2023-01-28T02:19:57.698Z,9.07
2023-01-28T02:22:29.992Z,6.70
2023-01-28T02:25:02.878Z,7.65
2023-01-28T02:27:37.708Z,5.78
2023-01-28T02:30:23.586Z,5.90
2023-01-28T02:32:57.385Z,5.88
2023-01-28T02:36:02.151Z,5.57
2023-01-28T02:38:34.866Z,7.57
2023-01-28T02:41:06.850Z,3.65
2023-01-28T02:43:41.998Z,4.82
2023-01-28T02:46:45.446Z,5.47
2023-01-28T02:49:34.142Z,3.83
2023-01-28T02:52:41.971Z,3.58
2023-01-28T02:55:27.623Z,4.00
2023-01-28T02:58:06.429Z,5.38
2023-01-28T03:00:50.894Z,8.25
2023-01-28T03:03:27.654Z,3.65
2023-01-28T03:06:04.179Z,4.03
2023-01-28T03:09:07.677Z,4.07
2023-01-28T03:11:57.307Z,4.05
2023-01-28T03:14:43.553Z,4.13
2023-01-28T03:17:37.216Z,4.55
2023-01-28T03:20:23.383Z,4.88
2023-01-28T03:23:14.199Z,3.65
2023-01-28T03:26:04.687Z,4.35
2023-01-28T03:28:52.410Z,4.82
2023-01-28T03:31:39.523Z,5.50
2023-01-28T03:34:26.350Z,5.90
2023-01-28T03:36:53.617Z,7.75
2023-01-28T03:39:39.688Z,3.85
2023-01-28T03:42:14.668Z,4.85
2023-01-28T03:45:14.778Z,4.28
2023-01-28T03:47:41.474Z,7.40
2023-01-28T03:50:10.758Z,3.85
2023-01-28T03:52:54.227Z,6.82
2023-01-28T03:55:43.749Z,6.55
2023-01-28T03:58:12.120Z,6.93
2023-01-28T04:00:41.923Z,5.10
2023-01-28T04:06:05.588Z,4.78
2023-01-28T04:08:53.372Z,7.15
2023-01-28T04:11:57.947Z,5.70
2023-01-28T04:14:30.512Z,6.18
2023-01-28T04:17:04.146Z,9.32
2023-01-28T04:19:31.615Z,8.20
2023-01-28T04:21:59.094Z,9.02
2023-01-28T04:24:25.718Z,5.18
2023-01-28T04:26:52.088Z,5.95
2023-01-28T04:29:18.816Z,5.47
2023-01-28T04:31:45.366Z,6.00
2023-01-28T04:34:20.284Z,6.85
2023-01-28T04:39:45.262Z,6.65
2023-01-28T04:42:36.042Z,5.68
2023-01-28T04:45:08.837Z,7.25
2023-01-28T04:47:49.826Z,6.25
2023-01-28T04:50:26.883Z,8.38
2023-01-28T04:53:12.262Z,6.82
2023-01-28T04:55:57.837Z,8.10
2023-01-28T04:58:25.504Z,7.03
2023-01-28T05:00:56.850Z,8.15
2023-01-28T05:03:24.493Z,8.00
2023-01-28T05:05:51.638Z,8.80
2023-01-28T05:08:23.347Z,7.97
2023-01-28T05:10:49.814Z,7.15
2023-01-28T05:13:16.188Z,6.45
2023-01-28T05:15:43.746Z,5.88
2023-01-28T05:18:10.174Z,7.55
2023-01-28T05:20:42.528Z,6.03
2023-01-28T05:23:08.867Z,7.93
2023-01-28T05:25:47.291Z,6.68
2023-01-28T05:28:13.756Z,5.55
2023-01-28T05:30:40.197Z,6.25
2023-01-28T05:33:06.968Z,8.15
2023-01-28T05:35:33.384Z,5.68
2023-01-28T05:37:59.738Z,5.97
2023-01-28T05:40:26.257Z,7.75
2023-01-28T05:42:52.682Z,5.80
2023-01-28T05:45:39.485Z,7.72
2023-01-28T05:48:12.143Z,6.50
2023-01-28T05:51:10.667Z,5.65
2023-01-28T05:53:40.603Z,5.78
2023-01-28T05:56:07.338Z,5.85
2023-01-28T05:58:34.962Z,6.07
2023-01-28T06:01:02.953Z,5.97
2023-01-28T06:03:38.051Z,4.40
2023-01-28T06:06:04.623Z,6.88
2023-01-28T06:08:31.585Z,5.65
2023-01-28T06:10:58.793Z,6.30
2023-01-28T06:13:25.277Z,6.13
2023-01-28T06:16:10.153Z,6.78
2023-01-28T06:18:59.357Z,7.20
2023-01-28T06:21:26.117Z,10.20
2023-01-28T06:23:53.337Z,7.55
2023-01-28T06:26:19.753Z,6.78
2023-01-28T06:28:46.982Z,6.00
2023-01-28T06:31:14.100Z,8.40
2023-01-28T06:33:40.459Z,5.63
2023-01-28T06:36:07.406Z,6.15
2023-01-28T06:38:34.965Z,5.65
2023-01-28T06:41:01.348Z,9.88
2023-01-28T06:43:28.164Z,5.30
2023-01-28T06:45:55.180Z,8.55
2023-01-28T06:48:22.007Z,7.00
2023-01-28T06:50:48.712Z,4.72
2023-01-28T06:53:15.955Z,9.35
2023-01-28T06:55:42.332Z,8.60
2023-01-28T06:58:09.090Z,5.93
2023-01-28T07:00:35.451Z,7.00
2023-01-28T07:03:01.951Z,5.50
2023-01-28T07:05:28.320Z,6.10
2023-01-28T07:07:54.623Z,12.57
2023-01-28T07:10:20.965Z,6.25
2023-01-28T07:12:47.333Z,7.63
2023-01-28T07:15:15.048Z,10.05
2023-01-28T07:17:42.415Z,14.07
2023-01-28T07:20:11.574Z,9.43
2023-01-28T07:22:40.440Z,9.45
2023-01-28T07:25:07.677Z,8.13
2023-01-28T07:27:33.986Z,7.05
2023-01-28T07:30:00.308Z,9.30
2023-01-28T07:32:27.335Z,7.18
2023-01-28T07:34:53.934Z,7.95
2023-01-28T07:37:21.018Z,7.85
2023-01-28T07:39:47.568Z,8.65
2023-01-28T07:42:14.067Z,6.65
2023-01-28T07:44:46.213Z,7.75
2023-01-28T07:47:12.662Z,4.18
2023-01-28T07:49:39.817Z,4.60
2023-01-28T07:52:07.148Z,5.28
2023-01-28T07:54:33.496Z,5.82
2023-01-28T07:56:59.883Z,3.00
2023-01-28T07:59:26.438Z,4.50
2023-01-28T08:01:55.078Z,3.85
2023-01-28T08:04:22.081Z,5.55
2023-01-28T08:06:48.548Z,5.07
2023-01-28T08:09:14.864Z,7.28
2023-01-28T08:11:41.319Z,4.40
2023-01-28T08:14:07.771Z,5.05
2023-01-28T08:16:34.061Z,4.53
2023-01-28T08:19:00.359Z,5.47
2023-01-28T08:21:26.688Z,7.03
2023-01-28T08:23:53.044Z,4.07
2023-01-28T08:26:19.335Z,4.97
2023-01-28T08:28:45.662Z,3.95
2023-01-28T08:31:12.187Z,5.78
2023-01-28T08:33:38.671Z,7.68
2023-01-28T08:36:05.637Z,5.72
2023-01-28T08:38:32.261Z,7.63
2023-01-28T08:40:59.747Z,7.07
2023-01-28T08:43:26.085Z,7.50
2023-01-28T08:45:52.468Z,3.83
2023-01-28T08:48:19.595Z,4.28
2023-01-28T08:50:46.151Z,3.42
2023-01-28T08:53:15.652Z,3.75
2023-01-28T08:55:42.228Z,4.53
2023-01-28T08:58:14.323Z,3.10
2023-01-28T09:00:41.250Z,6.07
2023-01-28T09:03:08.228Z,2.58
2023-01-28T09:05:35.763Z,2.90
2023-01-28T09:08:04.203Z,3.70
2023-01-28T09:10:30.556Z,2.78
2023-01-28T09:12:56.961Z,5.15
2023-01-28T09:15:23.358Z,3.58
2023-01-28T09:17:49.665Z,7.20
2023-01-28T09:20:16.686Z,3.50
2023-01-28T09:22:43.152Z,4.13
2023-01-28T09:25:09.568Z,2.30
2023-01-28T09:27:35.909Z,2.13
2023-01-28T09:30:02.496Z,3.58
2023-01-28T09:32:28.795Z,2.38
2023-01-28T09:34:55.123Z,1.67
2023-01-28T09:37:21.406Z,2.25
2023-01-28T09:39:48.234Z,2.30
2023-01-28T09:42:33.277Z,2.15
2023-01-28T09:45:10.055Z,9.63
2023-01-28T09:47:53.548Z,5.43
2023-01-28T09:50:33.724Z,8.90
2023-01-28T09:53:07.488Z,4.95
2023-01-28T09:55:40.090Z,3.50
2023-01-28T09:58:11.438Z,2.33
2023-01-28T10:01:02.371Z,3.47
2023-01-28T10:03:40.948Z,2.75
2023-01-28T10:06:36.764Z,10.52
2023-01-28T10:09:16.312Z,10.38
2023-01-28T10:12:02.180Z,18.42
2023-01-28T10:14:49.835Z,10.15
2023-01-28T10:17:25.689Z,4.53
2023-01-28T10:19:58.987Z,4.55
2023-01-28T10:22:31.854Z,4.47
2023-01-28T10:25:06.144Z,1.77
2023-01-28T10:27:35.059Z,2.13
2023-01-28T10:30:23.213Z,3.17
2023-01-28T10:33:01.474Z,4.97
2023-01-28T10:35:29.263Z,2.88
2023-01-28T10:38:02.218Z,2.60
2023-01-28T10:40:28.857Z,3.00
2023-01-28T10:42:55.285Z,3.92
2023-01-28T10:45:25.172Z,1.90
2023-01-28T10:48:02.862Z,1.90
2023-01-28T10:50:30.906Z,3.05
2023-01-28T10:53:05.508Z,2.30
2023-01-28T10:55:47.818Z,5.65
2023-01-28T10:58:24.353Z,7.53
2023-01-28T11:00:56.875Z,4.90
2023-01-28T11:03:27.236Z,5.95
2023-01-28T11:05:55.689Z,3.57
2023-01-28T11:08:24.414Z,3.58
2023-01-28T11:10:52.089Z,4.63
2023-01-28T11:13:19.543Z,4.60
2023-01-28T11:15:48.866Z,4.50
2023-01-28T11:18:24.246Z,2.90
2023-01-28T11:20:57.353Z,3.42
2023-01-28T11:23:38.544Z,11.95
2023-01-28T11:26:18.923Z,16.98
2023-01-28T11:28:45.486Z,8.17
2023-01-28T11:31:16.294Z,16.13
2023-01-28T11:33:54.267Z,13.45
2023-01-28T11:36:26.893Z,8.57
2023-01-28T11:39:00.049Z,9.82
2023-01-28T11:41:38.753Z,6.07
2023-01-28T11:44:19.111Z,4.30
2023-01-28T11:47:25.049Z,3.70
2023-01-28T11:50:15.660Z,5.20
2023-01-28T11:53:06.395Z,5.65
2023-01-28T11:58:36.597Z,4.82
2023-01-28T12:01:16.758Z,8.18
2023-01-28T12:04:16.397Z,5.13
2023-01-28T12:07:00.463Z,4.18
2023-01-28T12:09:48.719Z,4.00
2023-01-28T12:12:25.305Z,4.28
2023-01-28T12:15:02.227Z,2.80
2023-01-28T12:17:47.437Z,2.15
2023-01-28T12:20:31.944Z,3.70
2023-01-28T12:23:07.385Z,4.25
2023-01-28T12:25:33.656Z,4.25
2023-01-28T12:28:15.642Z,3.47
2023-01-28T12:30:55.923Z,4.07
2023-01-28T12:33:38.556Z,4.82
2023-01-28T12:36:22.614Z,7.97
2023-01-28T12:39:04.888Z,5.65
2023-01-28T12:41:39.788Z,6.22
2023-01-28T12:44:14.337Z,5.35
2023-01-28T12:46:52.928Z,6.95
2023-01-28T12:49:45.297Z,5.15
2023-01-28T12:52:22.814Z,5.25
2023-01-28T12:55:01.036Z,5.38
2023-01-28T12:57:29.888Z,6.82
2023-01-28T13:00:25.192Z,5.18
2023-01-28T13:03:11.378Z,4.47
2023-01-28T13:05:43.823Z,4.63
2023-01-28T13:08:17.619Z,4.65
2023-01-28T13:10:45.798Z,4.95
2023-01-28T13:13:39.561Z,4.80
2023-01-28T13:16:09.344Z,4.43
2023-01-28T13:18:38.419Z,4.35
2023-01-28T13:21:06.013Z,4.93
2023-01-28T13:23:39.707Z,6.00
2023-01-28T13:26:47.711Z,5.22
2023-01-28T13:29:13.960Z,4.95
2023-01-28T13:31:44.720Z,3.00
2023-01-28T13:34:33.666Z,6.30
2023-01-28T13:37:29.984Z,5.95
2023-01-28T13:40:14.721Z,5.25
2023-01-28T13:42:41.947Z,5.82
2023-01-28T13:45:17.825Z,7.57
2023-01-28T13:47:48.866Z,5.18
2023-01-28T13:50:20.751Z,3.95
2023-01-28T13:53:16.206Z,4.68
2023-01-28T13:55:46.066Z,6.32
2023-01-28T13:58:49.147Z,7.55
2023-01-28T14:01:52.667Z,6.68
2023-01-28T14:04:28.136Z,5.40
2023-01-28T14:07:07.457Z,7.88
2023-01-28T14:09:55.472Z,4.65
2023-01-28T14:12:47.810Z,7.47
2023-01-28T14:15:40.262Z,9.60
2023-01-28T14:18:21.228Z,17.08
2023-01-28T14:20:47.900Z,6.82
2023-01-28T14:23:18.220Z,11.55
2023-01-28T14:25:47.608Z,7.33
2023-01-28T14:28:23.093Z,6.72
2023-01-28T14:31:05.001Z,5.40
2023-01-28T14:33:32.738Z,8.05
2023-01-28T14:35:59.168Z,4.47
2023-01-28T14:38:25.569Z,3.80
2023-01-28T14:40:54.357Z,6.30
2023-01-28T14:43:26.962Z,5.82
2023-01-28T14:46:29.407Z,12.13
2023-01-28T14:49:18.464Z,10.07
2023-01-28T14:52:21.516Z,7.00
2023-01-28T14:54:47.783Z,13.00
2023-01-28T14:57:32.116Z,11.30
2023-01-28T14:59:59.696Z,5.85
2023-01-28T15:02:28.862Z,4.82
2023-01-28T15:05:07.828Z,5.22
2023-01-28T15:07:34.179Z,9.68
2023-01-28T15:10:02.480Z,12.85
2023-01-28T15:12:32.801Z,11.60
2023-01-28T15:15:19.568Z,15.40
2023-01-28T15:17:48.088Z,8.68
2023-01-28T15:20:20.611Z,7.57
2023-01-28T15:22:47.584Z,9.20
2023-01-28T15:25:19.403Z,6.60
2023-01-28T15:27:46.223Z,4.22
2023-01-28T15:30:28.428Z,4.40
2023-01-28T15:33:10.917Z,8.48
2023-01-28T15:35:37.294Z,27.23
2023-01-28T15:38:05.172Z,24.42
2023-01-28T15:40:44.508Z,31.02
2023-01-28T15:43:36.296Z,23.17
2023-01-28T15:46:03.688Z,32.50
2023-01-28T15:48:34.412Z,27.98
2023-01-28T15:51:16.919Z,27.60
2023-01-28T15:53:45.964Z,16.58
2023-01-28T15:56:14.761Z,26.73
2023-01-28T15:58:42.144Z,37.85
2023-01-28T16:01:08.520Z,19.58
2023-01-28T16:03:39.245Z,15.32
2023-01-28T16:06:27.892Z,9.18
2023-01-28T16:08:58.758Z,12.02
2023-01-28T16:11:30.226Z,17.50
2023-01-28T16:13:58.001Z,17.25
2023-01-28T16:16:36.725Z,20.63
2023-01-28T16:19:06.559Z,23.30
2023-01-28T16:21:37.830Z,23.02
2023-01-28T16:26:35.852Z,31.00
2023-01-28T16:29:15.171Z,17.85
2023-01-28T16:31:41.580Z,44.08
2023-01-28T16:34:10.399Z,26.05
2023-01-28T16:36:37.399Z,29.20
2023-01-28T16:39:03.924Z,19.40
2023-01-28T16:41:34.389Z,23.92
2023-01-28T16:44:05.668Z,29.02
2023-01-28T16:46:35.607Z,25.73
2023-01-28T16:49:02.695Z,23.17
2023-01-28T16:51:29.516Z,16.08
2023-01-28T16:53:56.004Z,19.95
2023-01-28T16:56:43.630Z,16.23
2023-01-28T16:59:11.904Z,34.88
2023-01-28T17:01:38.431Z,28.90
2023-01-28T17:04:11.575Z,16.20
2023-01-28T17:06:39.285Z,16.35
2023-01-28T17:09:05.775Z,15.52
2023-01-28T17:11:33.083Z,21.75
2023-01-28T17:13:59.507Z,61.75
2023-01-28T17:16:26.516Z,80.45
2023-01-28T17:18:54.155Z,55.15
2023-01-28T17:21:20.836Z,21.65
2023-01-28T17:23:47.388Z,24.23
2023-01-28T17:26:15.858Z,28.23
2023-01-28T17:28:42.736Z,18.67
2023-01-28T17:31:12.319Z,20.85
2023-01-28T17:33:39.924Z,18.95
2023-01-28T17:36:07.480Z,17.15
2023-01-28T17:38:33.919Z,15.43
2023-01-28T17:41:08.960Z,21.90
2023-01-28T17:43:35.405Z,31.13
2023-01-28T17:46:10.503Z,40.63
2023-01-28T17:48:36.986Z,19.52
2023-01-28T17:51:03.605Z,18.42
2023-01-28T17:53:29.961Z,16.10
2023-01-28T17:55:56.253Z,11.13
2023-01-28T17:58:22.536Z,10.57
2023-01-28T18:00:49.173Z,8.82
2023-01-28T18:03:16.321Z,8.18
2023-01-28T18:05:43.255Z,14.20
2023-01-28T18:08:09.727Z,19.38
2023-01-28T18:10:36.154Z,12.38
2023-01-28T18:13:02.595Z,12.30
2023-01-28T18:15:28.961Z,9.35
2023-01-28T18:17:55.265Z,11.18
2023-01-28T18:20:21.613Z,7.32
2023-01-28T18:22:47.959Z,6.60
2023-01-28T18:25:16.446Z,7.60
2023-01-28T18:27:43.645Z,9.65
2023-01-28T18:30:10.636Z,11.82
2023-01-28T18:32:36.973Z,8.60
2023-01-28T18:35:03.565Z,16.60
2023-01-28T18:37:29.925Z,20.52
2023-01-28T18:39:56.585Z,15.23
2023-01-28T18:42:22.905Z,15.00
2023-01-28T18:44:49.221Z,22.27
2023-01-28T18:47:15.565Z,22.00
2023-01-28T18:49:42.299Z,23.67
2023-01-28T18:52:09.056Z,21.33
2023-01-28T18:54:35.561Z,43.17
2023-01-28T18:57:02.222Z,166.55
2023-01-28T18:59:28.539Z,175.65
2023-01-28T19:01:54.918Z,52.03
2023-01-28T19:04:21.273Z,49.83
2023-01-28T19:06:48.126Z,180.73
2023-01-28T19:09:15.897Z,49.42
2023-01-28T19:11:42.690Z,33.13
2023-01-28T19:14:11.427Z,21.02
2023-01-28T19:16:37.878Z,16.63
2023-01-28T19:19:04.426Z,32.92
2023-01-28T19:21:31.605Z,47.78
2023-01-28T19:24:03.815Z,44.38
2023-01-28T19:26:31.149Z,32.45
2023-01-28T19:28:58.295Z,53.45
2023-01-28T19:31:25.928Z,28.02
2023-01-28T19:33:58.887Z,19.17
2023-01-28T19:36:28.154Z,15.68
2023-01-28T19:39:02.472Z,16.63
2023-01-28T19:41:28.986Z,22.42
2023-01-28T19:43:56.587Z,28.15
2023-01-28T19:46:23.633Z,33.33
2023-01-28T19:48:50.071Z,65.47
2023-01-28T19:51:16.799Z,56.22
2023-01-28T19:53:44.864Z,89.38
2023-01-28T19:56:13.964Z,76.57
2023-01-28T19:58:42.429Z,38.42
2023-01-28T20:01:17.455Z,56.90
2023-01-28T20:03:45.507Z,87.38
2023-01-28T20:06:14.731Z,57.30
2023-01-28T20:08:41.999Z,48.20
2023-01-28T20:11:11.880Z,40.70
2023-01-28T20:13:39.278Z,38.38
2023-01-28T20:16:07.557Z,36.58
2023-01-28T20:18:34.780Z,31.92
2023-01-28T20:21:01.539Z,27.10
2023-01-28T20:23:28.232Z,28.48
2023-01-28T20:25:56.370Z,26.83
2023-01-28T20:28:23.163Z,21.25
2023-01-28T20:30:52.112Z,21.05
2023-01-28T20:33:19.535Z,22.73
2023-01-28T20:35:45.901Z,18.05
2023-01-28T20:38:13.013Z,22.38
2023-01-28T20:40:42.407Z,22.52
2023-01-28T20:43:09.813Z,19.75
2023-01-28T20:45:36.154Z,18.30
2023-01-28T20:48:02.572Z,25.98
2023-01-28T20:50:28.932Z,23.33
2023-01-28T20:52:55.841Z,19.25
2023-01-28T20:55:22.233Z,20.27
2023-01-28T20:57:48.525Z,19.73
2023-01-28T21:00:15.637Z,20.02
2023-01-28T21:02:44.198Z,17.17
2023-01-28T21:05:10.568Z,22.05
2023-01-28T21:07:37.153Z,17.73
2023-01-28T21:10:03.928Z,23.13
2023-01-28T21:12:30.757Z,20.48
2023-01-28T21:14:57.559Z,21.23
2023-01-28T21:17:24.915Z,21.83
2023-01-28T21:19:51.278Z,15.15
2023-01-28T21:22:17.621Z,19.15
2023-01-28T21:24:45.399Z,20.73
2023-01-28T21:27:11.714Z,19.10
2023-01-28T21:29:38.032Z,18.20
2023-01-28T21:32:04.606Z,20.80
2023-01-28T21:34:30.937Z,18.80
2023-01-28T21:36:57.263Z,18.40
2023-01-28T21:39:23.819Z,16.00
2023-01-28T21:41:50.801Z,15.55
2023-01-28T21:44:17.185Z,13.35
2023-01-28T21:46:46.069Z,14.98
2023-01-28T21:49:12.481Z,16.85
2023-01-28T21:51:47.985Z,21.25
2023-01-28T21:54:20.612Z,21.40
2023-01-28T21:56:48.858Z,21.15
2023-01-28T21:59:28.609Z,32.67
2023-01-28T22:02:03.717Z,27.45
2023-01-28T22:04:35.770Z,30.88
2023-01-28T22:07:03.799Z,18.98
2023-01-28T22:09:31.055Z,20.90
2023-01-28T22:11:57.487Z,45.90
2023-01-28T22:14:23.816Z,78.03
2023-01-28T22:16:51.223Z,38.25
2023-01-28T22:19:17.957Z,41.53
2023-01-28T22:21:45.743Z,38.35
2023-01-28T22:24:14.811Z,27.50
2023-01-28T22:26:42.329Z,23.10
2023-01-28T22:29:10.069Z,26.15
2023-01-28T22:31:36.789Z,25.83
2023-01-28T22:34:03.589Z,25.02
2023-01-28T22:36:32.283Z,23.95
2023-01-28T22:38:58.613Z,23.05
2023-01-28T22:41:24.919Z,17.83
2023-01-28T22:43:52.077Z,35.15
2023-01-28T22:46:20.529Z,82.35
2023-01-28T22:48:47.078Z,59.70
2023-01-28T22:51:19.605Z,23.23
2023-01-28T22:53:47.087Z,22.55
2023-01-28T22:56:14.980Z,23.83
2023-01-28T22:58:41.520Z,24.67
2023-01-28T23:01:08.770Z,21.15
2023-01-28T23:03:35.955Z,25.15
2023-01-28T23:06:04.558Z,26.33
2023-01-28T23:08:31.776Z,22.67
2023-01-28T23:11:01.744Z,21.88
2023-01-28T23:13:48.902Z,24.13
2023-01-28T23:16:33.573Z,24.05
2023-01-28T23:19:18.329Z,26.83
2023-01-28T23:22:03.672Z,30.38
2023-01-28T23:24:32.751Z,25.40
2023-01-28T23:27:02.758Z,25.73
2023-01-28T23:29:31.206Z,22.95
2023-01-28T23:32:09.769Z,22.75
2023-01-28T23:34:40.215Z,25.70
2023-01-28T23:37:08.927Z,35.05
2023-01-28T23:39:35.737Z,35.47
2023-01-28T23:42:29.193Z,35.53
2023-01-28T23:44:55.603Z,35.47
2023-01-28T23:47:21.888Z,34.25
2023-01-28T23:49:48.190Z,44.60
2023-01-28T23:52:14.537Z,45.17
2023-01-28T23:54:40.865Z,42.13
2023-01-28T23:57:07.379Z,42.70
2023-01-28T23:59:33.782Z,55.53
